Time;durP1;ratioP1;P1;durP2;ratioP2;P2;SDS_P1;SDS_P2;PMS_P1;PMS_P2;Temp;Humidity;BMP_temperature;BMP_pressure;BME280_temperature;BME280_humidity;BME280_pressure;Samples;Min_cycle;Max_cycle;Signal;HPM_P1;HPM_P2
2022/07/18 00:04:42;;;;;;;3.10;1.10;;;30.00;56.80;;;;;;10821776;33;20027;-72
2022/07/18 00:10:44;;;;;;;2.67;1.58;;;29.90;56.90;;;;;;10826856;33;20050;-71
2022/07/18 00:16:46;;;;;;;2.92;1.30;;;29.80;57.00;;;;;;10825499;33;20086;-71
2022/07/18 00:22:49;;;;;;;1.55;1.20;;;29.80;57.10;;;;;;10812184;33;20023;-71
2022/07/18 00:28:51;;;;;;;1.70;0.95;;;29.80;57.00;;;;;;10824287;33;20028;-71
2022/07/18 00:34:53;;;;;;;2.97;1.75;;;29.70;57.10;;;;;;10820926;33;20020;-71
2022/07/18 00:41:17;;;;;;;1.80;1.23;;;29.60;57.30;;;;;;10824942;33;20028;-72
2022/07/18 00:47:20;;;;;;;1.92;1.17;;;29.60;57.20;;;;;;10820577;33;20023;-71
2022/07/18 00:53:23;;;;;;;3.47;1.10;;;29.60;57.10;;;;;;10824475;33;20062;-71
2022/07/18 01:01:42;;;;;;;2.67;1.65;;;29.50;57.40;;;;;;10828485;32;20415;-71
2022/07/18 01:06:11;;;;;;;1.85;1.25;;;29.30;57.60;;;;;;10831030;33;20036;-71
2022/07/18 01:12:14;;;;;;;3.53;2.35;;;29.20;57.90;;;;;;10830868;33;20047;-71
2022/07/18 01:18:17;;;;;;;5.20;2.12;;;29.20;58.00;;;;;;10829017;33;20090;-71
2022/07/18 01:24:38;;;;;;;2.47;1.98;;;29.30;57.80;;;;;;10830488;33;20332;-71
2022/07/18 01:30:40;;;;;;;4.25;2.58;;;29.30;57.60;;;;;;10830313;33;20032;-71
2022/07/18 01:36:42;;;;;;;4.90;3.10;;;29.30;57.60;;;;;;10827779;33;20032;-71
2022/07/18 01:42:44;;;;;;;5.32;3.17;;;29.30;57.80;;;;;;10830031;33;20050;-71
2022/07/18 01:48:46;;;;;;;3.87;2.97;;;29.30;58.00;;;;;;10816543;33;20051;-71
2022/07/18 01:54:49;;;;;;;4.22;2.60;;;29.30;58.10;;;;;;10827476;33;20063;-71
2022/07/18 02:00:51;;;;;;;4.78;2.83;;;29.30;58.30;;;;;;10829385;33;20028;-71
2022/07/18 02:06:53;;;;;;;3.78;2.92;;;29.20;58.50;;;;;;10829326;33;20039;-71
2022/07/18 02:12:55;;;;;;;4.15;2.72;;;29.10;58.70;;;;;;10828339;32;20051;-71
2022/07/18 02:18:57;;;;;;;6.65;2.87;;;29.10;59.00;;;;;;10828977;33;20451;-71
2022/07/18 02:25:21;;;;;;;2.40;2.08;;;29.00;59.20;;;;;;10828719;33;20032;-71
2022/07/18 02:31:23;;;;;;;5.32;2.83;;;29.00;59.40;;;;;;10828524;33;20321;-71
2022/07/18 02:37:25;;;;;;;3.90;2.47;;;29.00;59.50;;;;;;10828355;33;20024;-71
2022/07/18 02:43:27;;;;;;;2.95;1.67;;;29.00;59.60;;;;;;10828223;33;20051;-71
2022/07/18 02:49:29;;;;;;;2.80;1.40;;;29.00;59.60;;;;;;10828048;33;20023;-71
2022/07/18 02:55:34;;;;;;;2.75;1.55;;;28.90;59.50;;;;;;10827808;33;20392;-71
2022/07/18 03:01:57;;;;;;;4.07;2.12;;;28.80;59.20;;;;;;10827682;33;20016;-71
2022/07/18 03:07:59;;;;;;;2.05;1.23;;;28.80;59.00;;;;;;10827595;33;20024;-71
2022/07/18 03:14:01;;;;;;;2.25;1.25;;;28.70;59.40;;;;;;10827270;33;20028;-71
2022/07/18 03:20:28;;;;;;;2.17;1.50;;;28.70;59.60;;;;;;10822904;32;20031;-71
2022/07/18 03:26:30;;;;;;;2.65;1.37;;;28.70;59.80;;;;;;10827075;33;20012;-71
2022/07/18 03:32:31;;;;;;;1.80;1.15;;;28.70;59.70;;;;;;10826584;33;20040;-71
2022/07/18 03:38:33;;;;;;;2.15;1.30;;;28.70;59.60;;;;;;10826592;33;20024;-71
2022/07/18 03:44:36;;;;;;;3.00;1.37;;;28.70;59.60;;;;;;10826366;33;20412;-71
2022/07/18 03:50:37;;;;;;;2.20;1.45;;;28.70;59.40;;;;;;10826320;33;20047;-71
2022/07/18 03:56:39;;;;;;;1.50;1.08;;;28.70;59.30;;;;;;10825987;33;20048;-71
2022/07/18 04:02:45;;;;;;;3.00;1.50;;;28.70;59.40;;;;;;10826745;33;20016;-71
2022/07/18 04:08:47;;;;;;;2.22;1.30;;;28.60;59.50;;;;;;10821640;33;20067;-71
2022/07/18 04:14:49;;;;;;;3.12;1.50;;;28.70;59.30;;;;;;10825498;33;20051;-72
2022/07/18 04:20:51;;;;;;;2.75;1.80;;;28.60;59.20;;;;;;10825387;33;20027;-71
2022/07/18 04:27:14;;;;;;;2.53;1.60;;;28.60;59.50;;;;;;10833542;27;20343;-71
2022/07/18 04:33:17;;;;;;;1.50;0.93;;;28.60;59.20;;;;;;10857374;32;20477;-71
2022/07/18 04:39:19;;;;;;;3.45;1.40;;;28.60;59.60;;;;;;10861837;32;20399;-71
2022/07/18 04:45:23;;;;;;;2.67;1.30;;;28.50;59.50;;;;;;10861648;32;20035;-71
2022/07/18 04:51:25;;;;;;;2.92;1.48;;;28.40;59.50;;;;;;10861560;32;20023;-71
2022/07/18 04:57:26;;;;;;;4.28;1.42;;;28.50;59.70;;;;;;10861662;32;20055;-71
2022/07/18 05:03:29;;;;;;;1.58;1.17;;;28.40;59.80;;;;;;10861403;32;20369;-71
2022/07/18 05:09:31;;;;;;;1.45;0.95;;;28.40;59.80;;;;;;10848025;32;20058;-71
2022/07/18 05:15:33;;;;;;;1.77;1.20;;;28.30;59.60;;;;;;10861121;32;20035;-71
2022/07/18 05:21:35;;;;;;;5.35;1.75;;;28.30;60.20;;;;;;10860929;32;20031;-72
2022/07/18 05:27:37;;;;;;;3.70;1.45;;;28.30;60.50;;;;;;10860602;32;20082;-71
2022/07/18 05:33:40;;;;;;;1.62;1.10;;;28.30;60.40;;;;;;10860611;32;20327;-71
2022/07/18 05:39:56;;;;;;;2.65;1.20;;;28.30;60.00;;;;;;10860551;32;20047;-71
2022/07/18 05:45:58;;;;;;;1.42;1.02;;;28.50;60.20;;;;;;10864893;32;20024;-72
2022/07/18 05:52:00;;;;;;;4.00;1.50;;;28.60;59.90;;;;;;10866665;32;20024;-72
2022/07/18 05:58:03;;;;;;;2.55;1.62;;;28.70;59.80;;;;;;10849040;32;20039;-71
2022/07/18 06:04:05;;;;;;;3.22;1.73;;;28.60;59.20;;;;;;10816229;33;20039;-72
2022/07/18 06:10:08;;;;;;;1.92;1.33;;;28.50;59.40;;;;;;10825058;33;20064;-71
2022/07/18 06:16:11;;;;;;;2.25;1.20;;;28.50;59.00;;;;;;10824823;33;20031;-71
2022/07/18 06:22:13;;;;;;;2.92;1.33;;;28.60;58.80;;;;;;10815853;33;20042;-71
2022/07/18 06:28:15;;;;;;;4.03;1.70;;;28.70;58.40;;;;;;10849832;32;20036;-71
2022/07/18 06:34:17;;;;;;;1.23;0.88;;;28.80;58.00;;;;;;10828342;32;20068;-72
2022/07/18 06:40:20;;;;;;;2.00;1.25;;;28.90;57.90;;;;;;10828189;33;20385;-71
2022/07/18 06:46:22;;;;;;;2.62;1.40;;;29.00;57.30;;;;;;10828041;33;20031;-71
2022/07/18 06:52:26;;;;;;;5.87;1.77;;;29.00;57.10;;;;;;10824569;33;20028;-71
2022/07/18 06:58:33;;;;;;;2.60;1.40;;;29.10;57.10;;;;;;10823870;33;20356;-72
2022/07/18 07:04:35;;;;;;;2.07;1.17;;;29.00;56.90;;;;;;10827105;32;20355;-71
2022/07/18 07:11:04;;;;;;;1.67;1.10;;;29.10;56.90;;;;;;10824440;32;20449;-72
2022/07/18 07:17:06;;;;;;;5.10;1.87;;;29.30;56.60;;;;;;10827268;32;20032;-72
2022/07/18 07:23:09;;;;;;;2.85;1.75;;;29.30;55.50;;;;;;10827074;33;20016;-72
2022/07/18 07:29:11;;;;;;;3.03;1.80;;;29.60;55.30;;;;;;10826970;33;20020;-72
2022/07/18 07:35:16;;;;;;;9.57;2.30;;;29.70;54.70;;;;;;10824881;32;20055;-72
2022/07/18 07:41:18;;;;;;;4.65;2.92;;;29.70;54.50;;;;;;10825403;33;20047;-72
2022/07/18 07:47:21;;;;;;;5.72;2.90;;;29.90;54.30;;;;;;10825964;33;20020;-71
2022/07/18 07:53:23;;;;;;;3.40;1.80;;;30.00;53.40;;;;;;10826087;32;20039;-70
2022/07/18 07:59:25;;;;;;;3.65;1.90;;;30.20;53.40;;;;;;10823251;33;20042;-71
2022/07/18 08:05:30;;;;;;;2.58;1.77;;;30.30;52.60;;;;;;10821358;32;20028;-71
2022/07/18 08:11:32;;;;;;;6.10;2.75;;;30.40;52.10;;;;;;10820852;32;20312;-71
2022/07/18 08:17:35;;;;;;;3.72;2.33;;;30.50;52.20;;;;;;10820068;33;20032;-70
2022/07/18 08:23:39;;;;;;;1.92;1.48;;;30.60;51.90;;;;;;10820365;33;20368;-71
2022/07/18 08:29:41;;;;;;;4.35;2.03;;;30.80;52.10;;;;;;10821205;33;20352;-71
2022/07/18 08:35:43;;;;;;;5.65;2.30;;;31.00;50.80;;;;;;10822331;32;20032;-70
2022/07/18 08:41:48;;;;;;;2.03;1.50;;;31.00;51.00;;;;;;10825004;33;20024;-72
2022/07/18 08:47:55;;;;;;;3.00;1.92;;;30.90;50.40;;;;;;10823827;33;20024;-72
2022/07/18 08:53:57;;;;;;;1.60;1.13;;;30.80;50.70;;;;;;10823743;33;20056;-71
2022/07/18 09:00:02;;;;;;;1.30;1.05;;;30.90;51.00;;;;;;10824531;32;20028;-71
2022/07/18 09:06:06;;;;;;;7.00;2.55;;;31.10;50.70;;;;;;10824471;33;20319;-71
2022/07/18 09:12:17;;;;;;;1.62;1.30;;;31.40;50.00;;;;;;10823284;33;20054;-71
2022/07/18 09:18:38;;;;;;;21.48;3.03;;;31.60;49.60;;;;;;10825552;32;20055;-71
2022/07/18 09:25:00;;;;;;;2.50;1.75;;;31.80;48.90;;;;;;10830220;32;20062;-72
2022/07/18 09:31:19;;;;;;;6.25;2.47;;;32.00;48.10;;;;;;10830258;32;20386;-72
2022/07/18 09:37:24;;;;;;;4.22;1.85;;;32.00;46.70;;;;;;10830147;32;20066;-72
2022/07/18 09:43:38;;;;;;;1.98;1.70;;;32.10;46.20;;;;;;10829130;33;20020;-71
2022/07/18 09:49:42;;;;;;;4.97;2.65;;;32.30;45.70;;;;;;10830704;33;20097;-71
2022/07/18 09:56:06;;;;;;;4.25;2.10;;;32.40;44.60;;;;;;10829231;33;20032;-71
2022/07/18 10:02:09;;;;;;;6.87;2.50;;;32.40;44.10;;;;;;10826673;32;20355;-70
2022/07/18 10:08:14;;;;;;;3.67;1.87;;;32.50;43.70;;;;;;10828342;33;20020;-71
2022/07/18 10:14:21;;;;;;;3.95;2.60;;;32.80;43.80;;;;;;10828566;33;20094;-69
2022/07/18 10:20:39;;;;;;;4.40;2.47;;;32.90;42.90;;;;;;10825586;33;20024;-71
2022/07/18 10:26:41;;;;;;;5.00;3.12;;;33.00;42.60;;;;;;10827873;32;20061;-69
2022/07/18 10:32:48;;;;;;;3.58;2.20;;;33.10;41.80;;;;;;10823120;32;20028;-71
2022/07/18 10:39:25;;;;;;;16.08;2.92;;;33.30;41.40;;;;;;10828325;32;20032;-71
2022/07/18 10:45:46;;;;;;;3.85;2.08;;;33.50;40.70;;;;;;10827427;33;20078;-70
2022/07/18 10:51:52;;;;;;;5.10;2.78;;;33.70;41.40;;;;;;10828077;32;20039;-71
2022/07/18 10:57:54;;;;;;;5.47;3.50;;;33.90;40.90;;;;;;10827965;33;20024;-71
2022/07/18 11:04:33;;;;;;;5.50;2.97;;;33.90;40.70;;;;;;10827801;33;20031;-72
2022/07/18 11:10:41;;;;;;;5.15;2.70;;;34.00;41.00;;;;;;10827618;33;20059;-72
2022/07/18 11:17:23;;;;;;;5.37;2.97;;;34.00;41.30;;;;;;10827169;32;20039;-72
2022/07/18 11:23:27;;;;;;;6.28;2.92;;;34.40;39.80;;;;;;10787392;33;20055;-72
2022/07/18 11:29:40;;;;;;;8.60;3.25;;;34.70;38.40;;;;;;10786168;33;20401;-72
2022/07/18 11:35:42;;;;;;;4.68;2.72;;;34.90;37.80;;;;;;10786430;33;20051;-72
2022/07/18 11:41:44;;;;;;;4.55;2.42;;;35.10;37.70;;;;;;10784893;33;20055;-72
2022/07/18 11:48:00;;;;;;;5.78;2.00;;;35.50;37.30;;;;;;10786770;33;20028;-71
2022/07/18 11:54:03;;;;;;;5.17;1.53;;;35.60;38.90;;;;;;10818357;32;20328;-71
2022/07/18 12:00:59;;;;;;;2.58;1.75;;;35.50;38.40;;;;;;10677609;33;20081;-72
2022/07/18 12:07:24;;;;;;;5.30;1.98;;;35.90;37.00;;;;;;10676873;32;20055;-72
2022/07/18 12:13:56;;;;;;;3.22;1.75;;;36.00;36.30;;;;;;10677007;32;20060;-71
2022/07/18 12:20:14;;;;;;;2.95;1.73;;;36.30;36.10;;;;;;10677057;33;20034;-71
2022/07/18 12:26:31;;;;;;;2.53;1.52;;;36.30;35.20;;;;;;10680048;27;20029;-73
2022/07/18 12:32:58;;;;;;;2.40;1.55;;;36.40;34.90;;;;;;10825128;33;20438;-72
2022/07/18 12:39:00;;;;;;;;;;;36.40;35.30;;;;;;10825249;33;20055;-71
2022/07/18 12:45:07;;;;;;;3.12;1.70;;;36.40;34.40;;;;;;10824399;32;20234;-72
2022/07/18 12:51:11;;;;;;;5.45;2.00;;;36.20;34.40;;;;;;10824628;33;20016;-72
2022/07/18 12:57:13;;;;;;;3.08;1.67;;;36.30;34.30;;;;;;10824081;33;20313;-70
2022/07/18 13:03:15;;;;;;;3.53;2.08;;;36.30;34.00;;;;;;10824395;33;20195;-72
2022/07/18 13:09:18;;;;;;;3.37;2.08;;;36.30;34.70;;;;;;10824316;33;20024;-71
2022/07/18 13:15:22;;;;;;;2.50;1.85;;;36.20;35.50;;;;;;10823245;33;20282;-71
2022/07/18 13:21:24;;;;;;;3.03;2.15;;;36.10;34.70;;;;;;10824256;33;20024;-72
2022/07/18 13:27:30;;;;;;;4.32;2.87;;;36.20;34.40;;;;;;10824060;33;20319;-71
2022/07/18 13:33:32;;;;;;;1.83;1.55;;;36.10;34.80;;;;;;10823646;33;20328;-71
2022/07/18 13:39:35;;;;;;;6.65;1.80;;;36.00;34.60;;;;;;10823566;33;20020;-72
2022/07/18 13:45:38;;;;;;;2.35;1.50;;;36.00;34.50;;;;;;10822058;33;20024;-69
2022/07/18 13:51:40;;;;;;;2.30;1.50;;;35.90;34.40;;;;;;10823364;33;20017;-70
2022/07/18 13:57:42;;;;;;;3.22;1.73;;;35.90;34.60;;;;;;10823168;33;20069;-71
2022/07/18 14:03:44;;;;;;;4.05;1.85;;;36.00;34.50;;;;;;10822170;32;20008;-68
2022/07/18 14:09:46;;;;;;;3.90;2.45;;;36.00;34.40;;;;;;10824945;33;20384;-70
2022/07/18 14:15:48;;;;;;;5.47;2.15;;;35.90;34.40;;;;;;10826164;33;20092;-68
2022/07/18 14:22:20;;;;;;;12.70;2.28;;;36.00;34.60;;;;;;10825160;33;20032;-71
2022/07/18 14:28:27;;;;;;;1.80;1.50;;;36.00;34.40;;;;;;10807739;33;20443;-71
2022/07/18 14:34:28;;;;;;;;;;;35.90;34.70;;;;;;10789247;33;20383;-72
2022/07/18 14:40:41;;;;;;;2.78;1.40;;;35.70;35.00;;;;;;10789439;33;19932;-71
2022/07/18 14:46:43;;;;;;;2.95;1.90;;;35.80;35.00;;;;;;10789739;33;20314;-71
2022/07/18 14:52:46;;;;;;;3.62;1.77;;;36.00;34.60;;;;;;10805284;33;20032;-71
2022/07/18 14:58:48;;;;;;;9.02;2.15;;;36.10;34.60;;;;;;10822198;33;20024;-72
2022/07/18 15:04:50;;;;;;;2.95;2.22;;;36.00;34.20;;;;;;10801154;33;20036;-71
2022/07/18 15:10:52;;;;;;;3.00;1.90;;;36.00;34.50;;;;;;10794883;33;20051;-72
2022/07/18 15:16:54;;;;;;;4.62;2.45;;;36.00;34.30;;;;;;10790174;33;20032;-71
2022/07/18 15:22:56;;;;;;;2.00;1.45;;;36.00;34.30;;;;;;10813880;33;20032;-71
2022/07/18 15:28:59;;;;;;;2.87;1.87;;;36.00;34.30;;;;;;10826395;33;20036;-71
2022/07/18 15:35:01;;;;;;;2.22;1.30;;;36.10;34.40;;;;;;10810911;32;20400;-71
2022/07/18 15:41:08;;;;;;;2.03;1.25;;;36.10;34.50;;;;;;10794387;32;20032;-72
2022/07/18 15:47:11;;;;;;;2.72;1.70;;;36.20;34.60;;;;;;10801383;33;20036;-71
2022/07/18 15:53:13;;;;;;;3.17;2.10;;;36.10;34.40;;;;;;10796398;33;20036;-71
2022/07/18 15:59:15;;;;;;;2.72;1.70;;;36.00;34.30;;;;;;10824054;33;20028;-71
2022/07/18 16:05:17;;;;;;;2.37;1.80;;;36.10;34.30;;;;;;10803119;33;20063;-72
2022/07/18 16:11:19;;;;;;;3.90;1.75;;;36.20;34.30;;;;;;10797210;33;20059;-72
2022/07/18 16:17:21;;;;;;;7.78;1.80;;;36.20;34.10;;;;;;10792921;33;20031;-72
2022/07/18 16:23:23;;;;;;;2.03;1.60;;;36.30;33.90;;;;;;10798144;33;20028;-72
2022/07/18 16:29:25;;;;;;;5.15;2.03;;;36.20;33.80;;;;;;10785737;33;20356;-72
2022/07/18 16:35:28;;;;;;;13.23;1.90;;;36.30;33.90;;;;;;10810705;33;20070;-72
2022/07/18 16:41:30;;;;;;;4.78;1.25;;;36.40;33.90;;;;;;10784526;32;20047;-72
2022/07/18 16:47:33;;;;;;;1.67;1.20;;;36.30;34.00;;;;;;10789910;33;20059;-72
2022/07/18 16:53:36;;;;;;;2.55;1.67;;;36.30;34.00;;;;;;10788370;33;20055;-72
2022/07/18 16:59:38;;;;;;;1.70;1.20;;;36.30;34.10;;;;;;10788026;33;20020;-72
2022/07/18 17:05:41;;;;;;;1.95;1.65;;;36.30;34.30;;;;;;10788283;33;20060;-72
2022/07/18 17:11:43;;;;;;;2.12;1.35;;;36.20;34.10;;;;;;10786944;33;20028;-71
2022/07/18 17:17:45;;;;;;;2.40;1.80;;;36.10;34.30;;;;;;10787136;33;20028;-72
2022/07/18 17:23:48;;;;;;;7.47;1.95;;;36.10;34.50;;;;;;10787215;33;20278;-72
2022/07/18 17:29:51;;;;;;;3.97;1.55;;;36.10;34.70;;;;;;10782949;33;20051;-71
2022/07/18 17:35:54;;;;;;;2.55;1.50;;;36.00;35.00;;;;;;10786362;33;20058;-72
2022/07/18 17:41:56;;;;;;;1.58;0.90;;;35.90;35.10;;;;;;10811434;33;20039;-72
2022/07/18 17:47:59;;;;;;;5.87;1.05;;;35.90;35.30;;;;;;10829298;33;20051;-71
2022/07/18 17:54:01;;;;;;;1.17;0.85;;;35.90;35.30;;;;;;10829807;33;20059;-72
2022/07/18 18:00:06;;;;;;;2.30;1.15;;;36.20;35.30;;;;;;10816801;33;20020;-72
2022/07/18 18:06:08;;;;;;;1.27;0.88;;;36.40;35.10;;;;;;10829608;33;20028;-72
2022/07/18 18:12:10;;;;;;;1.25;0.93;;;36.20;35.40;;;;;;10816006;33;20043;-72
2022/07/18 18:18:12;;;;;;;1.35;1.05;;;35.70;36.00;;;;;;10829054;33;20040;-72
2022/07/18 18:24:14;;;;;;;1.17;0.88;;;35.30;36.70;;;;;;10829000;33;20336;-72
2022/07/18 18:30:31;;;;;;;1.50;0.90;;;34.90;37.50;;;;;;10827978;33;20024;-72
2022/07/18 18:42:54;;;;;;;2.33;1.58;;;34.50;38.50;;;;;;10828516;33;20016;-72
2022/07/18 18:48:58;;;;;;;1.05;0.80;;;34.30;39.00;;;;;;10828210;33;20020;-72
2022/07/18 18:55:01;;;;;;;1.98;1.27;;;34.20;39.30;;;;;;10827178;32;20032;-73
2022/07/18 19:01:03;;;;;;;2.60;0.93;;;34.00;39.90;;;;;;10827838;33;20043;-72
2022/07/18 19:07:05;;;;;;;2.72;1.45;;;33.80;40.20;;;;;;10827213;33;20412;-71
2022/07/18 19:13:33;;;;;;;1.73;1.10;;;33.80;40.60;;;;;;10825087;33;20028;-71
2022/07/18 19:19:35;;;;;;;2.35;1.35;;;33.60;41.30;;;;;;10788918;33;20364;-71
2022/07/18 19:25:53;;;;;;;1.33;0.90;;;33.40;41.90;;;;;;10788322;33;20036;-71
2022/07/18 19:31:55;;;;;;;3.37;1.45;;;33.30;42.10;;;;;;10786038;33;20008;-71
2022/07/18 19:37:57;;;;;;;3.00;1.10;;;33.10;42.40;;;;;;10787362;33;20051;-71
2022/07/18 19:44:05;;;;;;;1.83;1.30;;;33.00;42.80;;;;;;10789439;33;20056;-71
2022/07/18 19:50:08;;;;;;;2.45;1.40;;;32.90;43.10;;;;;;10787317;33;20033;-71
2022/07/18 19:56:28;;;;;;;1.35;0.90;;;32.80;43.50;;;;;;10788250;33;20028;-71
2022/07/18 20:02:30;;;;;;;1.85;0.82;;;32.70;43.60;;;;;;10785708;33;20021;-72
2022/07/18 20:08:32;;;;;;;1.45;0.98;;;32.50;44.10;;;;;;10788942;33;20374;-71
2022/07/18 20:14:35;;;;;;;3.08;1.48;;;32.50;44.60;;;;;;10787730;33;20055;-71
2022/07/18 20:20:37;;;;;;;1.55;1.25;;;32.50;45.40;;;;;;10784874;33;20023;-71
2022/07/18 20:26:39;;;;;;;2.12;1.48;;;32.40;45.60;;;;;;10435862;27;11934592;-71
2022/07/18 20:32:42;;;;;;;1.10;1.00;;;32.40;45.90;;;;;;10782703;33;20381;-71
2022/07/18 20:38:44;;;;;;;2.30;1.40;;;32.30;46.50;;;;;;10780942;33;20047;-71
2022/07/18 20:44:46;;;;;;;1.50;1.20;;;32.20;46.80;;;;;;10784485;33;20059;-71
2022/07/18 20:50:48;;;;;;;5.18;1.40;;;32.10;47.20;;;;;;10784502;33;20032;-71
2022/07/18 20:56:52;;;;;;;3.45;1.67;;;32.00;47.40;;;;;;10783876;33;20028;-71
2022/07/18 21:02:54;;;;;;;2.58;1.50;;;31.90;47.70;;;;;;10784290;33;20016;-71
2022/07/18 21:08:56;;;;;;;8.35;2.42;;;31.90;47.90;;;;;;10787552;33;20036;-71
2022/07/18 21:15:05;;;;;;;2.92;1.62;;;31.70;48.20;;;;;;10785663;33;20064;-71
2022/07/18 21:21:07;;;;;;;3.90;2.03;;;31.70;48.60;;;;;;10794092;33;20039;-71
2022/07/18 21:27:09;;;;;;;2.65;1.90;;;31.50;49.30;;;;;;10793664;33;20023;-71
2022/07/18 21:33:11;;;;;;;3.20;1.67;;;31.40;49.30;;;;;;10793189;33;20028;-71
2022/07/18 21:39:14;;;;;;;5.90;1.98;;;31.40;49.50;;;;;;10789475;33;20047;-71
2022/07/18 21:45:16;;;;;;;1.17;0.98;;;31.40;49.60;;;;;;10793421;33;20028;-72
2022/07/18 21:51:19;;;;;;;3.30;1.92;;;31.40;49.60;;;;;;10789100;33;20046;-72
2022/07/18 21:57:22;;;;;;;4.22;1.37;;;31.30;49.90;;;;;;10792848;33;20028;-72
2022/07/18 22:03:25;;;;;;;5.82;1.33;;;31.30;50.10;;;;;;10792995;33;20016;-71
2022/07/18 22:09:27;;;;;;;2.30;1.58;;;31.20;50.20;;;;;;10788486;33;20051;-71
2022/07/18 22:15:30;;;;;;;2.67;1.40;;;31.20;50.30;;;;;;10790281;33;20056;-70
2022/07/18 22:21:32;;;;;;;2.53;1.55;;;30.90;50.60;;;;;;10792305;33;20055;-71
2022/07/18 22:27:34;;;;;;;1.37;1.12;;;30.80;51.00;;;;;;10791183;33;20050;-71
2022/07/18 22:33:37;;;;;;;1.98;1.20;;;30.80;51.20;;;;;;10791589;33;20033;-71
2022/07/18 22:39:39;;;;;;;3.10;1.90;;;30.70;51.40;;;;;;10791761;33;20016;-72
2022/07/18 22:45:41;;;;;;;2.45;1.50;;;30.70;51.70;;;;;;10789528;33;20043;-72
2022/07/18 22:51:44;;;;;;;4.05;1.85;;;30.60;51.70;;;;;;10787311;33;20098;-71
2022/07/18 22:57:46;;;;;;;4.12;1.87;;;30.60;51.70;;;;;;10791139;33;20055;-71
2022/07/18 23:03:48;;;;;;;1.98;1.30;;;30.40;52.10;;;;;;10787757;33;20388;-71
2022/07/18 23:09:50;;;;;;;2.12;1.52;;;30.40;52.70;;;;;;10788940;33;20063;-71
2022/07/18 23:15:53;;;;;;;1.80;1.48;;;30.30;52.80;;;;;;10786709;33;20024;-71
2022/07/18 23:21:55;;;;;;;1.80;1.12;;;30.30;52.80;;;;;;10790569;33;20032;-71
2022/07/18 23:27:57;;;;;;;1.83;1.10;;;30.20;52.90;;;;;;10790446;33;20043;-71
2022/07/18 23:33:59;;;;;;;2.67;1.85;;;30.10;53.20;;;;;;10790240;33;20051;-71
2022/07/18 23:40:02;;;;;;;3.05;1.80;;;30.00;53.30;;;;;;10789862;33;20016;-72
2022/07/18 23:46:04;;;;;;;1.95;1.50;;;30.10;53.20;;;;;;10789794;33;20028;-71
2022/07/18 23:52:07;;;;;;;1.62;1.20;;;30.10;53.30;;;;;;10789955;33;20360;-71
2022/07/18 23:58:09;;;;;;;3.03;1.92;;;30.00;53.60;;;;;;10789534;33;20020;-71
